Time;durP1;ratioP1;P1;durP2;ratioP2;P2;SDS_P1;SDS_P2;PMS_P1;PMS_P2;Temp;Humidity;BMP_temperature;BMP_pressure;BME280_temperature;BME280_humidity;BME280_pressure;Samples;Min_cycle;Max_cycle;Signal;HPM_P1;HPM_P2
2023/10/03 00:00:22;;;;;;;31.80;14.35;;;;;;;;;;5022266;28;20033;-86
2023/10/03 00:02:49;;;;;;;33.03;15.35;;;;;;;;;;5018472;28;20030;-86
2023/10/03 00:05:19;;;;;;;36.42;15.38;;;;;;;;;;5019196;28;20042;-86
2023/10/03 00:07:47;;;;;;;36.63;14.98;;;;;;;;;;5011092;28;20022;-86
2023/10/03 00:10:13;;;;;;;33.45;14.52;;;;;;;;;;5018360;28;20034;-85
2023/10/03 00:12:39;;;;;;;30.55;14.48;;;;;;;;;;4999948;28;20058;-84
2023/10/03 00:15:08;;;;;;;32.25;14.55;;;;;;;;;;5012627;28;20037;-83
2023/10/03 00:17:37;;;;;;;35.88;14.93;;;;;;;;;;5017951;28;20428;-86
2023/10/03 00:20:04;;;;;;;28.27;13.30;;;;;;;;;;5018464;28;20030;-86
2023/10/03 00:22:30;;;;;;;32.53;14.07;;;;;;;;;;5008627;28;20034;-84
2023/10/03 00:24:56;;;;;;;33.97;14.80;;;;;;;;;;4998453;28;20523;-85
2023/10/03 00:27:23;;;;;;;34.90;14.10;;;;;;;;;;5004735;28;20118;-87
2023/10/03 00:29:51;;;;;;;32.78;13.50;;;;;;;;;;4998575;28;20026;-86
2023/10/03 00:32:17;;;;;;;32.47;13.98;;;;;;;;;;5022032;28;20041;-86
2023/10/03 00:34:45;;;;;;;32.47;14.43;;;;;;;;;;5023322;28;20033;-86
2023/10/03 00:37:11;;;;;;;35.45;14.25;;;;;;;;;;5021117;28;20022;-84
2023/10/03 00:39:45;;;;;;;30.55;13.30;;;;;;;;;;5020115;28;20057;-85
2023/10/03 00:42:11;;;;;;;30.70;14.65;;;;;;;;;;5006159;28;20028;-82
2023/10/03 00:44:40;;;;;;;28.77;12.38;;;;;;;;;;5006273;28;20037;-85
2023/10/03 00:47:07;;;;;;;33.10;13.50;;;;;;;;;;5000858;28;20037;-86
2023/10/03 00:49:34;;;;;;;30.35;13.90;;;16.10;99.90;;;;;;4999437;28;20029;-85
2023/10/03 00:52:01;;;;;;;30.25;13.35;;;;;;;;;;5003049;28;20025;-86
2023/10/03 00:54:27;;;;;;;29.83;12.80;;;;;;;;;;5018985;28;20034;-87
2023/10/03 00:56:54;;;;;;;29.10;13.35;;;;;;;;;;5021650;28;20049;-85
2023/10/03 00:59:20;;;;;;;28.67;13.75;;;;;;;;;;5020292;28;20090;-85
2023/10/03 01:01:46;;;;;;;31.90;13.75;;;;;;;;;;5007208;28;20034;-85
2023/10/03 01:04:19;;;;;;;26.50;11.68;;;;;;;;;;5019406;28;20113;-86
2023/10/03 01:06:46;;;;;;;25.98;11.95;;;;;;;;;;5019483;28;20036;-83
2023/10/03 01:09:20;;;;;;;28.92;12.85;;;;;;;;;;5015958;28;20032;-86
2023/10/03 01:11:49;;;;;;;24.92;11.70;;;;;;;;;;5017880;28;20041;-86
2023/10/03 01:14:16;;;;;;;27.83;13.53;;;;;;;;;;5023273;28;20026;-82
2023/10/03 01:16:43;;;;;;;29.85;13.77;;;;;;;;;;5004402;28;20281;-85
2023/10/03 01:19:20;;;;;;;25.85;12.38;;;;;;;;;;5019293;28;20022;-85
2023/10/03 01:21:47;;;;;;;27.15;12.38;;;;;;;;;;5019282;28;20113;-84
2023/10/03 01:24:20;;;;;;;25.75;12.32;;;;;;;;;;5020394;28;20087;-87
2023/10/03 01:26:46;;;;;;;26.80;11.55;;;;;;;;;;5018112;28;20049;-86
2023/10/03 01:29:12;;;;;;;26.90;11.60;;;;;;;;;;5019465;28;20054;-87
2023/10/03 01:31:41;;;;;;;23.25;11.43;;;16.20;99.90;;;;;;5015844;28;20022;-86
2023/10/03 01:34:10;;;;;;;25.08;9.98;;;;;;;;;;4988006;28;20030;-84
2023/10/03 01:36:37;;;;;;;21.17;10.25;;;;;;;;;;5016643;28;20033;-84
2023/10/03 01:39:06;;;;;;;22.42;10.90;;;;;;;;;;4996952;28;20109;-83
2023/10/03 01:41:32;;;;;;;25.05;10.32;;;;;;;;;;5017555;28;20073;-85
2023/10/03 01:43:58;;;;;;;23.80;10.68;;;;;;;;;;5020892;28;20091;-86
2023/10/03 01:46:26;;;;;;;23.10;9.23;;;;;;;;;;5006780;28;20022;-85
2023/10/03 01:48:52;;;;;;;18.92;9.52;;;;;;;;;;5020436;28;20036;-85
2023/10/03 01:51:19;;;;;;;17.42;8.40;;;;;;;;;;5017118;28;20495;-85
2023/10/03 01:53:46;;;;;;;15.00;8.02;;;;;;;;;;5020161;28;20084;-84
2023/10/03 01:56:12;;;;;;;19.08;9.32;;;;;;;;;;5023567;28;20057;-86
2023/10/03 01:58:38;;;;;;;20.02;8.52;;;;;;;;;;5009169;28;20064;-84
2023/10/03 02:01:04;;;;;;;17.23;8.15;;;;;;;;;;5026183;28;20037;-86
2023/10/03 02:03:32;;;;;;;18.25;8.23;;;;;;;;;;5021651;28;20037;-87
2023/10/03 02:05:59;;;;;;;13.23;7.13;;;;;;;;;;5021788;28;20029;-86
2023/10/03 02:08:26;;;;;;;20.40;8.15;;;;;;;;;;5023428;28;20057;-85
2023/10/03 02:10:53;;;;;;;16.23;7.93;;;;;;;;;;5022284;28;20034;-85
2023/10/03 02:13:19;;;;;;;15.25;8.10;;;;;;;;;;5021315;28;20030;-87
2023/10/03 02:15:48;;;;;;;14.27;7.90;;;;;;;;;;5016524;28;20092;-85
2023/10/03 02:18:17;;;;;;;16.23;7.88;;;;;;;;;;5017684;28;20061;-86
2023/10/03 02:20:51;;;;;;;16.52;8.02;;;;;;;;;;5002202;28;20065;-85
2023/10/03 02:23:19;;;;;;;14.30;7.28;;;;;;;;;;5019621;28;20101;-85
2023/10/03 02:25:45;;;;;;;14.45;7.22;;;;;;;;;;5016025;28;20035;-83
2023/10/03 02:28:14;;;;;;;12.75;6.72;;;;;;;;;;5023953;28;20028;-85
2023/10/03 02:30:40;;;;;;;10.55;6.43;;;;;;;;;;5019789;28;20022;-87
2023/10/03 02:33:10;;;;;;;13.85;6.70;;;;;;;;;;5004223;28;20025;-85
2023/10/03 02:35:38;;;;;;;13.70;6.80;;;;;;;;;;5019132;28;20395;-84
2023/10/03 02:38:10;;;;;;;15.05;7.38;;;;;;;;;;5018755;28;20476;-85
2023/10/03 02:40:36;;;;;;;12.00;6.55;;;;;;;;;;5015895;28;20110;-84
2023/10/03 02:43:04;;;;;;;15.10;7.03;;;;;;;;;;5019894;28;20022;-83
2023/10/03 02:45:30;;;;;;;11.00;6.10;;;;;;;;;;5018992;28;20488;-81
2023/10/03 02:47:58;;;;;;;11.15;6.18;;;;;;;;;;5020427;28;20057;-86
2023/10/03 02:50:26;;;;;;;12.45;6.43;;;;;;;;;;5003016;28;20804;-86
2023/10/03 02:52:52;;;;;;;12.18;6.22;;;;;;;;;;5019041;28;20471;-85
2023/10/03 02:55:22;;;;;;;9.00;5.75;;;;;;;;;;5007883;28;20439;-84
2023/10/03 02:57:49;;;;;;;12.20;5.68;;;;;;;;;;5020353;28;20113;-87
2023/10/03 03:00:16;;;;;;;13.60;6.82;;;;;;;;;;5011676;28;20089;-85
2023/10/03 03:02:43;;;;;;;11.43;5.82;;;;;;;;;;5016715;28;20041;-83
2023/10/03 03:05:10;;;;;;;11.32;6.15;;;;;;;;;;5018718;28;20062;-86
2023/10/03 03:07:37;;;;;;;12.50;6.70;;;;;;;;;;5018034;28;20036;-85
2023/10/03 03:10:03;;;;;;;9.68;5.90;;;;;;;;;;5019383;28;20026;-85
2023/10/03 03:12:31;;;;;;;10.77;5.93;;;;;;;;;;5015759;28;20030;-85
2023/10/03 03:14:57;;;;;;;12.07;6.40;;;;;;;;;;4998618;28;20030;-85
2023/10/03 03:17:23;;;;;;;9.30;5.18;;;;;;;;;;5021780;28;20514;-87
2023/10/03 03:19:53;;;;;;;9.65;5.60;;;;;;;;;;5026224;28;20080;-86
2023/10/03 03:22:21;;;;;;;;;;;17.30;99.90;;;;;;5000843;28;20037;-84
2023/10/03 03:24:51;;;;;;;12.30;5.53;;;;;;;;;;5013816;28;19917;-83
2023/10/03 03:27:18;;;;;;;11.48;5.85;;;;;;;;;;5013027;28;20034;-84
2023/10/03 03:30:28;;;;;;;9.90;5.40;;;;;;;;;;4997864;28;20089;-85
2023/10/03 03:32:48;;;;;;;13.50;6.07;;;;;;;;;;5036327;28;20129;-88
2023/10/03 03:35:15;;;;;;;10.23;5.88;;;;;;;;;;5034349;28;20025;-88
2023/10/03 03:37:41;;;;;;;8.98;5.45;;;;;;;;;;5034376;28;20403;-88
2023/10/03 03:40:26;;;;;;;10.82;5.97;;;;;;;;;;5033848;28;20014;-87
2023/10/03 03:42:53;;;;;;;10.27;5.35;;;;;;;;;;5030574;28;20041;-83
2023/10/03 03:45:21;;;;;;;10.55;5.43;;;;;;;;;;5012297;28;20034;-87
2023/10/03 03:47:50;;;;;;;12.23;5.70;;;;;;;;;;5019922;28;20964;-85
2023/10/03 03:50:17;;;;;;;11.93;6.20;;;;;;;;;;5017849;28;20033;-84
2023/10/03 03:52:45;;;;;;;11.98;6.00;;;;;;;;;;5029223;28;20025;-82
2023/10/03 03:55:11;;;;;;;9.45;5.43;;;;;;;;;;5031118;28;20065;-83
2023/10/03 03:57:38;;;;;;;11.20;6.05;;;;;;;;;;5030087;28;20035;-82
2023/10/03 04:00:21;;;;;;;12.40;5.20;;;;;;;;;;5010085;28;20057;-84
2023/10/03 04:02:48;;;;;;;9.70;5.82;;;;;;;;;;5030923;28;20022;-87
2023/10/03 04:05:20;;;;;;;10.77;5.47;;;;;;;;;;5025891;28;20030;-87
2023/10/03 04:07:47;;;;;;;8.80;5.50;;;;;;;;;;5024290;28;20022;-82
2023/10/03 04:10:13;;;;;;;9.45;5.45;;;;;;;;;;5029736;28;20053;-83
2023/10/03 04:12:43;;;;;;;8.20;5.20;;;;;;;;;;5032611;28;20026;-84
2023/10/03 04:15:15;;;;;;;8.07;5.10;;;;;;;;;;5019177;28;20053;-85
2023/10/03 04:17:41;;;;;;;9.98;5.90;;;;;;;;;;5027802;28;20029;-86
2023/10/03 04:20:25;;;;;;;11.55;4.82;;;;;;;;;;5026729;28;20022;-83
2023/10/03 04:22:52;;;;;;;10.30;5.53;;;;;;;;;;5026507;28;20042;-87
2023/10/03 04:25:22;;;;;;;11.55;5.88;;;;;;;;;;5030243;28;20068;-84
2023/10/03 04:27:48;;;;;;;9.57;5.10;;;;;;;;;;5018967;28;20030;-86
2023/10/03 04:30:15;;;;;;;10.52;5.22;;;;;;;;;;5038357;28;20037;-86
2023/10/03 04:32:42;;;;;;;11.25;5.60;;;;;;;;;;5039300;28;20085;-88
2023/10/03 04:35:13;;;;;;;11.20;6.22;;;;;;;;;;5039132;28;20008;-85
2023/10/03 04:37:42;;;;;;;8.70;4.85;;;;;;;;;;5036593;28;20034;-88
2023/10/03 04:40:15;;;;;;;12.13;6.10;;;;;;;;;;5019867;28;20010;-88
2023/10/03 04:42:43;;;;;;;10.93;5.45;;;;;;;;;;5047316;23;20348;-88
2023/10/03 04:45:13;;;;;;;9.82;5.57;;;17.20;99.90;;;;;;5041948;28;20104;-87
2023/10/03 04:47:41;;;;;;;8.77;4.93;;;;;;;;;;5032392;28;20021;-89
2023/10/03 04:50:08;;;;;;;10.98;5.13;;;;;;;;;;5043761;28;20033;-90
2023/10/03 04:52:34;;;;;;;8.43;5.30;;;;;;;;;;5024451;28;20403;-90
2023/10/03 04:55:00;;;;;;;9.13;5.28;;;;;;;;;;5014613;28;20472;-89
2023/10/03 04:57:27;;;;;;;8.35;4.95;;;;;;;;;;5017120;28;20037;-90
2023/10/03 04:59:56;;;;;;;8.40;5.35;;;;;;;;;;5016376;28;20026;-90
2023/10/03 05:02:22;;;;;;;9.63;5.28;;;;;;;;;;4998849;28;20033;-91
2023/10/03 05:04:48;;;;;;;10.52;5.50;;;;;;;;;;5013871;28;20032;-89
2023/10/03 05:07:15;;;;;;;10.23;5.32;;;;;;;;;;5014483;28;20037;-88
2023/10/03 05:09:41;;;;;;;8.95;5.45;;;;;;;;;;5015321;28;20110;-90
2023/10/03 05:12:07;;;;;;;10.18;5.65;;;;;;;;;;5003420;28;20029;-86
2023/10/03 05:14:35;;;;;;;9.25;5.05;;;;;;;;;;5009059;28;20058;-89
2023/10/03 05:17:01;;;;;;;10.60;5.72;;;;;;;;;;5025234;28;20026;-88
2023/10/03 05:19:31;;;;;;;11.55;5.45;;;;;;;;;;5022494;28;20050;-89
2023/10/03 05:21:58;;;;;;;9.15;5.15;;;;;;;;;;5029942;28;21147;-88
2023/10/03 05:24:26;;;;;;;13.90;5.75;;;;;;;;;;5029830;28;20022;-89
2023/10/03 05:26:52;;;;;;;10.95;5.47;;;;;;;;;;5017078;28;20029;-91
2023/10/03 05:29:21;;;;;;;11.07;5.55;;;;;;;;;;5006048;28;20097;-90
2023/10/03 05:31:48;;;;;;;9.32;5.10;;;;;;;;;;5012930;28;20026;-88
2023/10/03 05:34:15;;;;;;;7.90;5.18;;;;;;;;;;5001662;28;20101;-90
2023/10/03 05:36:41;;;;;;;11.50;5.47;;;;;;;;;;5021020;28;20030;-91
2023/10/03 05:39:11;;;;;;;11.35;5.65;;;;;;;;;;5002894;28;20029;-91
2023/10/03 05:41:40;;;;;;;9.90;5.40;;;;;;;;;;5000444;28;20531;-90
2023/10/03 05:44:11;;;;;;;10.10;5.77;;;;;;;;;;5012121;28;20041;-91
2023/10/03 05:46:37;;;;;;;9.50;4.75;;;;;;;;;;5012205;28;20026;-89
2023/10/03 05:49:03;;;;;;;9.63;5.00;;;;;;;;;;4997860;28;20030;-88
2023/10/03 05:51:29;;;;;;;7.65;4.55;;;;;;;;;;5011943;28;20042;-89
2023/10/03 05:53:55;;;;;;;11.75;5.00;;;;;;;;;;5010712;28;20530;-91
2023/10/03 05:56:21;;;;;;;10.73;5.43;;;;;;;;;;5015917;28;20385;-89
2023/10/03 05:58:47;;;;;;;8.95;5.40;;;;;;;;;;4990735;28;20033;-88
2023/10/03 06:01:14;;;;;;;10.02;4.93;;;;;;;;;;4994992;28;20042;-90
2023/10/03 06:03:40;;;;;;;9.68;5.07;;;;;;;;;;5014380;28;20029;-88
2023/10/03 06:06:06;;;;;;;9.25;4.78;;;;;;;;;;5006319;28;20064;-89
2023/10/03 06:08:32;;;;;;;8.25;5.05;;;;;;;;;;5011036;28;20026;-89
2023/10/03 06:11:00;;;;;;;9.10;5.20;;;;;;;;;;5012812;28;20022;-89
2023/10/03 06:13:26;;;;;;;9.07;5.32;;;;;;;;;;5002908;28;20050;-90
2023/10/03 06:22:23;;;;;;;8.02;5.50;;;;;;;;;;5023560;23;20047;-88
2023/10/03 06:24:50;;;;;;;9.00;5.10;;;;;;;;;;5053833;28;20024;-88
2023/10/03 06:27:17;;;;;;;8.25;5.28;;;;;;;;;;5048583;28;20028;-89
2023/10/03 06:29:43;;;;;;;8.65;5.28;;;;;;;;;;5051021;28;20069;-90
2023/10/03 06:32:09;;;;;;;12.65;5.80;;;;;;;;;;5050292;28;20483;-89
2023/10/03 06:34:36;;;;;;;7.78;5.10;;;;;;;;;;5047386;28;20026;-88
2023/10/03 06:37:04;;;;;;;10.63;5.78;;;;;;;;;;5050880;28;20021;-87
2023/10/03 06:39:30;;;;;;;8.70;5.65;;;;;;;;;;5045371;28;20135;-89
2023/10/03 06:41:58;;;;;;;9.90;5.68;;;;;;;;;;5051158;28;20037;-88
2023/10/03 06:44:24;;;;;;;10.35;5.07;;;;;;;;;;5045428;28;20045;-88
2023/10/03 06:46:50;;;;;;;7.95;4.60;;;;;;;;;;5048188;28;20018;-88
2023/10/03 06:49:17;;;;;;;11.02;5.28;;;;;;;;;;5038461;28;20026;-86
2023/10/03 06:51:44;;;;;;;7.03;4.95;;;;;;;;;;5045560;28;20025;-87
2023/10/03 06:54:10;;;;;;;9.07;5.22;;;;;;;;;;5045431;28;20381;-89
2023/10/03 06:56:37;;;;;;;12.75;5.40;;;;;;;;;;5048496;28;20009;-88
2023/10/03 06:59:10;;;;;;;9.68;5.70;;;;;;;;;;5050767;28;20022;-87
2023/10/03 07:19:46;;;;;;;8.18;4.65;;;19.50;99.90;;;;;;5062417;28;20037;-88
2023/10/03 07:22:11;;;;;;;8.23;4.57;;;;;;;;;;5047960;28;20785;-85
2023/10/03 07:24:39;;;;;;;6.97;4.38;;;;;;;;;;5063520;28;20036;-87
2023/10/03 07:27:07;;;;;;;11.35;5.28;;;;;;;;;;5045482;28;20065;-85
2023/10/03 07:29:33;;;;;;;15.00;5.15;;;;;;;;;;5046736;28;20025;-87
2023/10/03 07:31:59;;;;;;;8.80;4.75;;;;;;;;;;5062732;28;20025;-86
2023/10/03 07:34:25;;;;;;;10.10;5.15;;;;;;;;;;5043778;28;20057;-85
2023/10/03 07:36:51;;;;;;;10.18;4.85;;;;;;;;;;5046106;28;20030;-85
2023/10/03 07:39:17;;;;;;;7.47;4.47;;;;;;;;;;5044711;28;20688;-87
2023/10/03 07:41:44;;;;;;;8.55;4.85;;;;;;;;;;5042192;28;20029;-84
2023/10/03 07:44:10;;;;;;;11.90;4.75;;;;;;;;;;5047114;28;20032;-86
2023/10/03 07:46:36;;;;;;;10.63;5.15;;;;;;;;;;5044906;28;20029;-84
2023/10/03 07:49:02;;;;;;;11.13;5.07;;;;;;;;;;5056611;28;20115;-85
2023/10/03 07:51:31;;;;;;;8.38;5.00;;;;;;;;;;5046715;28;20021;-86
2023/10/03 07:53:57;;;;;;;10.25;5.43;;;;;;;;;;5056561;28;20051;-85
2023/10/03 07:56:25;;;;;;;11.45;4.88;;;;;;;;;;5046449;28;20017;-87
2023/10/03 07:58:54;;;;;;;9.80;5.13;;;;;;;;;;5069584;28;20029;-87
2023/10/03 08:01:29;;;;;;;11.33;5.50;;;;;;;;;;5053319;28;20115;-87
2023/10/03 08:03:57;;;;;;;12.20;5.30;;;20.80;99.90;;;;;;5063505;28;20036;-87
2023/10/03 08:06:23;;;;;;;9.32;5.10;;;;;;;;;;5050924;28;20650;-87
2023/10/03 08:08:53;;;;;;;8.18;4.70;;;;;;;;;;5056320;28;20033;-88
2023/10/03 08:11:22;;;;;;;10.10;4.73;;;21.00;99.90;;;;;;5057772;28;20063;-87
2023/10/03 08:13:50;;;;;;;9.88;5.32;;;;;;;;;;5065485;28;20270;-85
2023/10/03 08:16:16;;;;;;;9.07;5.20;;;;;;;;;;5052499;28;20194;-87
2023/10/03 08:18:46;;;;;;;9.32;5.07;;;;;;;;;;5052283;28;20037;-87
2023/10/03 08:21:12;;;;;;;;;;;21.20;99.90;;;;;;5071659;28;20041;-87
2023/10/03 08:23:38;;;;;;;10.52;5.05;;;;;;;;;;5052025;28;19943;-87
2023/10/03 08:26:07;;;;;;;11.02;5.68;;;;;;;;;;5051015;28;20121;-88
2023/10/03 08:28:34;;;;;;;10.40;5.32;;;;;;;;;;5048202;28;20033;-89
2023/10/03 08:31:06;;;;;;;10.68;5.05;;;;;;;;;;5069941;28;20024;-87
2023/10/03 08:33:36;;;;;;;13.35;5.40;;;;;;;;;;5052752;28;20014;-88
2023/10/03 08:36:14;;;;;;;10.63;5.70;;;20.90;99.90;;;;;;5053133;28;20026;-89
2023/10/03 08:38:43;;;;;;;8.63;4.90;;;;;;;;;;5050686;28;20025;-89
2023/10/03 08:41:12;;;;;;;10.35;5.63;;;20.90;99.90;;;;;;5059748;28;20031;-87
2023/10/03 08:43:39;;;;;;;9.23;5.50;;;;;;;;;;5057066;28;20035;-88
2023/10/03 08:46:09;;;;;;;13.43;5.72;;;;;;;;;;5071620;28;20359;-88
2023/10/03 08:48:38;;;;;;;9.27;4.82;;;21.10;99.90;;;;;;5058506;28;20017;-89
2023/10/03 08:51:04;;;;;;;14.38;5.28;;;;;;;;;;5054098;28;20060;-90
2023/10/03 08:53:31;;;;;;;14.95;6.35;;;;;;;;;;5059795;28;20021;-87
2023/10/03 08:55:58;;;;;;;14.05;5.45;;;;;;;;;;5054614;28;20056;-88
2023/10/03 08:58:25;;;;;;;12.30;5.75;;;;;;;;;;5051614;28;20018;-89
2023/10/03 09:00:58;;;;;;;11.82;5.28;;;;;;;;;;5055968;28;20043;-87
2023/10/03 09:03:25;;;;;;;15.27;5.63;;;;;;;;;;5059565;28;20024;-86
2023/10/03 09:05:51;;;;;;;9.43;5.32;;;;;;;;;;5059060;28;20029;-89
2023/10/03 09:08:17;;;;;;;13.60;5.85;;;;;;;;;;5055740;28;21149;-88
2023/10/03 09:10:51;;;;;;;13.50;5.60;;;;;;;;;;5073209;28;20016;-89
2023/10/03 09:13:25;;;;;;;15.52;6.00;;;21.90;99.90;;;;;;5053271;28;20024;-90
2023/10/03 09:16:00;;;;;;;15.30;5.93;;;21.80;99.90;;;;;;5058985;28;20024;-89
2023/10/03 09:18:27;;;;;;;13.45;5.45;;;;;;;;;;5058936;28;20041;-89
2023/10/03 09:20:59;;;;;;;10.88;5.45;;;;;;;;;;5054801;28;20020;-88
2023/10/03 09:23:27;;;;;;;11.82;5.60;;;;;;;;;;5055923;28;20080;-90
2023/10/03 09:25:55;;;;;;;10.40;5.93;;;;;;;;;;5056952;28;20056;-89
2023/10/03 09:28:35;;;;;;;21.90;6.20;;;;;;;;;;5057946;28;20029;-88
2023/10/03 09:31:02;;;;;;;13.48;5.70;;;;;;;;;;5052703;28;20024;-89
2023/10/03 09:33:28;;;;;;;11.18;5.82;;;;;;;;;;5047610;28;20025;-88
2023/10/03 09:36:00;;;;;;;19.08;6.10;;;;;;;;;;5048011;28;20025;-89
2023/10/03 09:38:44;;;;;;;14.43;6.82;;;22.10;99.90;;;;;;5063875;28;20018;-89
2023/10/03 09:41:17;;;;;;;8.73;4.70;;;;;;;;;;5065629;28;20040;-90
2023/10/03 09:43:55;;;;;;;11.80;5.50;;;22.50;99.90;;;;;;5052504;28;20029;-88
2023/10/03 09:46:38;;;;;;;11.77;5.38;;;;;;;;;;5055170;28;20021;-89
2023/10/03 09:49:08;;;;;;;11.75;5.90;;;;;;;;;;5056332;28;20029;-91
2023/10/03 09:51:47;;;;;;;10.85;5.47;;;;;;;;;;5058010;28;20024;-90
2023/10/03 09:54:30;;;;;;;10.18;5.70;;;;;;;;;;5058156;28;20025;-90
2023/10/03 09:57:00;;;;;;;12.82;5.70;;;22.50;99.90;;;;;;5072944;28;20028;-89
2023/10/03 09:59:32;;;;;;;12.20;5.80;;;22.40;99.90;;;;;;5072969;28;20009;-90
2023/10/03 10:01:59;;;;;;;13.75;6.28;;;;;;;;;;5073128;28;20036;-90
2023/10/03 10:04:26;;;;;;;10.32;5.47;;;;;;;;;;5054555;28;20037;-89
2023/10/03 10:07:01;;;;;;;15.85;7.55;;;;;;;;;;5050643;28;20048;-90
2023/10/03 10:09:34;;;;;;;12.73;6.00;;;;;;;;;;5055764;28;20080;-89
2023/10/03 10:12:10;;;;;;;13.70;5.88;;;;;;;;;;5060901;28;20856;-88
2023/10/03 10:14:55;;;;;;;10.98;6.32;;;;;;;;;;5059954;28;20078;-88
2023/10/03 10:17:21;;;;;;;11.02;5.40;;;;;;;;;;5056427;28;20036;-89
2023/10/03 10:20:21;;;;;;;10.05;5.07;;;22.30;99.90;;;;;;5050456;28;20030;-88
2023/10/03 10:23:13;;;;;;;12.25;5.00;;;22.30;99.90;;;;;;5051891;28;21441;-89
2023/10/03 10:25:49;;;;;;;11.60;4.90;;;22.20;99.90;;;;;;5055352;28;20020;-89
2023/10/03 10:28:23;;;;;;;12.45;5.38;;;;;;;;;;5054134;28;20017;-87
2023/10/03 10:31:17;;;;;;;10.85;5.20;;;22.30;99.90;;;;;;5074022;28;20016;-90
2023/10/03 10:33:43;;;;;;;11.15;4.72;;;;;;;;;;5051732;28;20025;-89
2023/10/03 10:36:10;;;;;;;9.88;4.20;;;;;;;;;;5057120;28;20077;-87
2023/10/03 10:38:36;;;;;;;12.80;5.00;;;;;;;;;;5050966;28;20030;-88
2023/10/03 10:41:18;;;;;;;9.75;4.55;;;;;;;;;;5042940;28;20040;-87
2023/10/03 10:44:05;;;;;;;9.23;4.32;;;22.70;99.90;;;;;;5048135;28;20097;-89
2023/10/03 10:46:39;;;;;;;9.40;4.20;;;;;;;;;;5046565;28;20032;-90
2023/10/03 10:49:30;;;;;;;13.30;4.65;;;22.90;99.90;;;;;;5049552;28;20024;-89
2023/10/03 10:51:57;;;;;;;8.15;4.07;;;;;;;;;;5046939;28;20029;-90
2023/10/03 10:54:26;;;;;;;9.63;4.65;;;;;;;;;;5066261;28;20013;-88
2023/10/03 10:57:02;;;;;;;8.98;4.43;;;;;;;;;;5053438;28;20025;-88
2023/10/03 10:59:28;;;;;;;8.20;4.00;;;;;;;;;;5052784;28;20018;-88
2023/10/03 11:01:57;;;;;;;8.13;3.72;;;;;;;;;;5048956;28;20096;-90
2023/10/03 11:04:27;;;;;;;12.15;4.05;;;;;;;;;;5069991;28;20077;-85
2023/10/03 11:06:54;;;;;;;9.55;3.88;;;;;;;;;;5070242;28;20388;-89
2023/10/03 11:09:38;;;;;;;10.90;4.50;;;;;;;;;;5071596;28;20077;-88
2023/10/03 11:12:06;;;;;;;11.35;4.18;;;;;;;;;;5072547;28;20009;-88
2023/10/03 11:14:33;;;;;;;10.88;3.70;;;;;;;;;;5048118;28;20043;-89
2023/10/03 11:17:00;;;;;;;8.88;3.42;;;;;;;;;;5054520;28;20009;-88
2023/10/03 11:19:26;;;;;;;12.13;4.65;;;;;;;;;;5057484;28;20021;-88
2023/10/03 11:21:53;;;;;;;7.35;3.60;;;;;;;;;;5043529;28;20029;-87
2023/10/03 11:24:22;;;;;;;9.07;3.72;;;;;;;;;;5058578;28;20029;-88
2023/10/03 11:26:59;;;;;;;7.38;3.70;;;;;;;;;;5050371;28;20088;-87
2023/10/03 11:29:36;;;;;;;6.78;3.33;;;;;;;;;;5060569;28;20029;-87
2023/10/03 11:32:02;;;;;;;9.50;3.33;;;;;;;;;;5051825;28;20033;-91
2023/10/03 11:34:36;;;;;;;5.70;3.20;;;;;;;;;;5074110;28;20099;-89
2023/10/03 12:10:45;;;;;;;7.22;3.10;;;;;;;;;;5050481;28;20037;-87
2023/10/03 12:13:15;;;;;;;8.32;3.47;;;;;;;;;;5042221;28;20048;-89
2023/10/03 12:15:45;;;;;;;9.73;3.75;;;;;;;;;;5032031;28;20041;-91
2023/10/03 12:18:15;;;;;;;10.52;3.80;;;;;;;;;;5043870;28;20037;-88
2023/10/03 12:20:43;;;;;;;10.23;4.15;;;;;;;;;;5022323;28;20017;-88
2023/10/03 12:23:10;;;;;;;9.25;3.92;;;;;;;;;;5026118;28;20085;-89
2023/10/03 12:25:39;;;;;;;8.07;3.50;;;;;;;;;;5025179;28;20018;-85
2023/10/03 12:28:07;;;;;;;6.85;2.90;;;;;;;;;;5042458;28;20589;-89
2023/10/03 12:30:33;;;;;;;7.07;3.08;;;;;;;;;;5049664;28;20030;-89
2023/10/03 12:32:59;;;;;;;8.02;3.45;;;;;;;;;;5046703;28;20030;-89
2023/10/03 12:35:27;;;;;;;13.40;4.07;;;;;;;;;;5037505;28;20014;-87
2023/10/03 12:37:58;;;;;;;10.18;4.03;;;;;;;;;;5053370;28;20097;-89
2023/10/03 12:41:01;;;;;;;7.15;3.53;;;;;;;;;;5037181;28;20018;-89
2023/10/03 12:43:28;;;;;;;9.65;3.60;;;;;;;;;;5028400;28;20021;-89
2023/10/03 12:45:54;;;;;;;10.90;3.85;;;;;;;;;;5053864;28;20026;-89
2023/10/03 12:48:20;;;;;;;10.85;4.47;;;;;;;;;;5034706;28;20117;-88
2023/10/03 12:50:46;;;;;;;10.15;3.80;;;;;;;;;;5031240;28;20033;-87
2023/10/03 12:53:12;;;;;;;10.60;4.35;;;;;;;;;;5050975;28;20097;-91
2023/10/03 12:55:39;;;;;;;11.82;4.30;;;;;;;;;;5022828;28;20042;-87
2023/10/03 12:58:05;;;;;;;10.75;4.35;;;;;;;;;;5043322;28;20057;-89
2023/10/03 15:21:48;;;;;;;9.52;5.07;;;18.10;99.90;;;;;;4960286;28;20047;-84
2023/10/03 15:27:57;;;;;;;6.63;2.80;;;17.80;99.90;;;;;;4944567;28;20057;-86
2023/10/03 15:30:24;;;;;;;7.93;2.53;;;;;;;;;;4928884;28;20051;-84
2023/10/03 15:32:50;;;;;;;7.72;3.08;;;;;;;;;;4934189;28;20306;-83
2023/10/03 15:35:16;;;;;;;7.32;2.80;;;;;;;;;;4935123;28;20039;-84
2023/10/03 15:37:42;;;;;;;6.40;3.00;;;;;;;;;;4933592;28;20039;-83
2023/10/03 15:40:08;;;;;;;5.93;2.58;;;;;;;;;;4948753;28;20039;-86
2023/10/03 15:42:34;;;;;;;7.07;2.28;;;;;;;;;;4930951;29;20028;-85
2023/10/03 15:45:04;;;;;;;6.65;2.38;;;;;;;;;;4954144;28;20060;-83
2023/10/03 15:47:31;;;;;;;6.85;2.67;;;17.90;99.90;;;;;;4940546;29;20035;-84
2023/10/03 15:49:57;;;;;;;6.07;2.33;;;;;;;;;;4937931;28;20031;-83
2023/10/03 15:52:23;;;;;;;4.75;2.20;;;;;;;;;;4931277;29;20043;-84
2023/10/03 15:54:49;;;;;;;4.18;1.98;;;;;;;;;;4949775;28;20034;-83
2023/10/03 15:57:16;;;;;;;7.93;2.20;;;;;;;;;;4936785;29;20035;-83
2023/10/03 15:59:42;;;;;;;6.50;2.65;;;;;;;;;;4939102;29;20041;-86
2023/10/03 16:02:11;;;;;;;4.75;2.00;;;;;;;;;;4932069;28;20031;-87
2023/10/03 16:04:40;;;;;;;6.35;2.05;;;;;;;;;;4937210;29;20055;-87
2023/10/03 16:07:06;;;;;;;6.73;3.33;;;;;;;;;;4949713;28;20052;-85
2023/10/03 16:09:32;;;;;;;6.03;2.60;;;;;;;;;;4952776;28;20291;-85
2023/10/03 16:11:58;;;;;;;4.45;2.00;;;;;;;;;;4933128;28;20376;-86
2023/10/03 16:14:27;;;;;;;4.63;2.00;;;;;;;;;;4938286;28;20034;-84
2023/10/03 16:16:54;;;;;;;6.88;2.40;;;;;;;;;;4925893;28;20038;-86
2023/10/03 16:19:21;;;;;;;5.85;2.20;;;;;;;;;;4934463;29;20031;-86
2023/10/03 16:21:48;;;;;;;6.45;2.25;;;;;;;;;;4950916;28;20031;-86
2023/10/03 16:24:14;;;;;;;4.97;2.50;;;;;;;;;;4938276;28;20118;-86
2023/10/03 16:26:43;;;;;;;6.18;2.30;;;;;;;;;;4936478;29;20016;-84
2023/10/03 16:29:09;;;;;;;6.28;2.78;;;;;;;;;;4936987;28;20032;-86
2023/10/03 16:31:36;;;;;;;6.65;2.08;;;;;;;;;;4938234;29;20481;-87
2023/10/03 16:34:02;;;;;;;6.25;2.40;;;;;;;;;;4936827;28;20063;-85
2023/10/03 16:36:28;;;;;;;8.63;2.28;;;17.40;99.90;;;;;;4938566;29;20082;-82
2023/10/03 16:38:54;;;;;;;5.97;2.50;;;;;;;;;;4933609;28;20035;-88
2023/10/03 16:41:21;;;;;;;5.55;3.08;;;;;;;;;;4936460;28;20031;-86
2023/10/03 16:43:49;;;;;;;7.80;3.10;;;17.20;99.90;;;;;;4934897;28;20015;-86
2023/10/03 16:46:15;;;;;;;13.75;5.97;;;;;;;;;;4956016;28;20295;-86
2023/10/03 16:48:42;;;;;;;6.18;3.00;;;17.20;99.90;;;;;;4938887;28;20123;-85
2023/10/03 16:51:08;;;;;;;5.47;2.88;;;;;;;;;;4949138;28;20039;-85
2023/10/03 16:53:34;;;;;;;6.85;3.40;;;;;;;;;;4936807;28;20047;-83
2023/10/03 16:56:01;;;;;;;5.90;2.80;;;;;;;;;;4951037;28;20066;-83
2023/10/03 16:58:27;;;;;;;6.65;2.88;;;;;;;;;;4937489;28;20034;-84
2023/10/03 17:00:54;;;;;;;7.38;2.70;;;;;;;;;;4949752;28;20028;-87
2023/10/03 17:03:20;;;;;;;6.15;3.03;;;;;;;;;;4936749;29;20097;-86
2023/10/03 17:05:46;;;;;;;6.95;3.20;;;;;;;;;;4937244;28;20059;-85
2023/10/03 17:08:16;;;;;;;6.00;2.63;;;;;;;;;;4937972;28;20031;-85
2023/10/03 17:10:42;;;;;;;6.95;2.88;;;;;;;;;;4933002;28;20055;-85
2023/10/03 17:13:11;;;;;;;7.05;3.65;;;;;;;;;;4935646;28;20039;-84
2023/10/03 17:15:39;;;;;;;5.20;2.67;;;16.80;99.90;;;;;;4938610;29;20023;-85
2023/10/03 17:18:08;;;;;;;6.35;2.72;;;;;;;;;;4939644;28;20027;-89
2023/10/03 17:20:37;;;;;;;5.93;2.55;;;;;;;;;;4953022;28;20046;-86
2023/10/03 17:23:04;;;;;;;6.80;2.42;;;;;;;;;;4951650;28;20444;-87
2023/10/03 17:25:31;;;;;;;5.80;2.50;;;;;;;;;;4951014;28;20023;-87
2023/10/03 17:28:01;;;;;;;5.72;2.22;;;;;;;;;;4933962;28;20033;-85
2023/10/03 17:30:27;;;;;;;6.45;2.70;;;;;;;;;;4933781;29;20023;-85
2023/10/03 17:32:55;;;;;;;5.03;2.45;;;;;;;;;;4935990;28;20039;-88
2023/10/03 17:35:21;;;;;;;7.38;2.58;;;;;;;;;;4939887;28;20054;-86
2023/10/03 17:37:47;;;;;;;8.35;2.85;;;;;;;;;;4948184;28;20392;-86
2023/10/03 17:40:14;;;;;;;7.93;2.72;;;;;;;;;;4936146;29;20385;-85
2023/10/03 17:42:41;;;;;;;6.53;3.40;;;;;;;;;;4931061;28;20624;-86
2023/10/03 17:45:09;;;;;;;6.43;2.88;;;;;;;;;;4942640;28;20098;-86
2023/10/03 17:47:37;;;;;;;5.53;2.90;;;;;;;;;;4930938;29;20038;-87
2023/10/03 17:50:12;;;;;;;7.28;2.70;;;16.60;99.90;;;;;;4934578;28;20051;-86
2023/10/03 17:52:39;;;;;;;7.50;2.85;;;;;;;;;;4950322;28;20031;-84
2023/10/03 17:55:09;;;;;;;6.25;2.85;;;;;;;;;;4942865;28;20039;-85